Armavir, Russia

1:49 PM MSK on August 31, 2014 (GMT +0400)
Shpakovskoye | Change Station
CLOSE
Current Station
Airport
Location: Stavropol',
Elevation: 1483 ft
Nearby Weather Stations

Elev 1483 ft 45.12 °N, 42.08 °E | Updated 19 minutes ago

Mostly Cloudy
Mostly Cloudy
81 °F
Feels Like 81 °F
N
11
Wind Variable Wind from East
Gusts 18 mph

Today
High -- | Low -- °F
--% Chance of Precip.
Yesterday
High -- | Low -- °F
Precip. -- in
6:35 AM 7:55 PM
Waxing Crescent, 29% visible
Pressure 30.04 in
Visibility 6.2 miles
Clouds Mostly Cloudy 3000 ft
Dew Point 48 °F
Humidity 32%
Rainfall 0.00 in
Snow Depth Not available.
UV 4 out of 12
Pollen Not available.
Air Quality Not available.
Flu Activity Not available.
METAR URMT 310930Z 10005G08MPS 070V140 9999 BKN030 27/09 Q1017 NOSIG RMK QFE723 SC070

More Conditions Fewer Conditions

Pressure 30.04 in
Visibility 6.2 miles
Clouds Mostly Cloudy 3000 ft
Dew Point 48 °F
Humidity 32%
Rainfall 0.00 in
Snow Depth Not available.
UV 4 out of 12
Pollen Not available.
Air Quality Not available.
Flu Activity Not available.
METAR URMT 310930Z 10005G08MPS 070V140 9999 BKN030 27/09 Q1017 NOSIG RMK QFE723 SC070

More Conditions Fewer Conditions

10-Day Weather Forecast

Almanac

Astronomy

Aug. 31, 2014 Rise Set
Actual Time 6:35 AM MSK 7:55 PM MSK
Civil Twilight 6:05 AM MSK 8:25 PM MSK
Nautical Twilight 5:28 AM MSK 9:01 PM MSK
Astronomical Twilight 4:49 AM MSK 9:40 PM MSK
Moon 12:16 PM MSK 10:38 PM MSK
Length of Visible Light 14h 19m
Length of Day
13h 19m
Tomorrow will be 3m 0s shorter.
Waxing Crescent, 29% of the Moon is Illuminated
Today
Waxing Crescent
Sep 2
First Quarter
Sep 8
Full
Sep 15
Last Quarter
Sep 24
New

Yesterday's Extremes

Country Highs Country Lows

Community

WunderPhotos

Upload Photos

1,748,834 photos uploaded!

Nearby

Snow Depth

Not available.

Earthquake Activity

City Distance Mag. Time & Date
No recent earthquake activity has been reported nearby.
Minimum magnitude displayed is 2.5.

Coastal Water Temperatures

Place Temperature
No Stations Reporting

Nearby Weather Stations